Time;durP1;ratioP1;P1;durP2;ratioP2;P2;SDS_P1;SDS_P2;PMS_P1;PMS_P2;Temp;Humidity;BMP_temperature;BMP_pressure;BME280_temperature;BME280_humidity;BME280_pressure;Samples;Min_cycle;Max_cycle;Signal;HPM_P1;HPM_P2
2023/01/10 00:00:01;;;;;;;5.88;2.78;;;;;;;7.53;83.58;100188.38;4899265;29;20198;-70
2023/01/10 00:02:34;;;;;;;5.60;2.40;;;;;;;7.43;84.27;100192.25;4906061;29;20200;-70
2023/01/10 00:05:04;;;;;;;6.47;2.40;;;;;;;7.39;84.84;100195.53;4884928;29;20598;-71
2023/01/10 00:07:33;;;;;;;4.30;3.80;;;;;;;7.31;85.56;100193.81;4903822;29;20680;-73
2023/01/10 00:10:02;;;;;;;4.47;3.35;;;;;;;7.42;85.60;100198.66;4898463;29;20556;-70
2023/01/10 00:15:18;;;;;;;3.05;2.50;;;;;;;7.38;86.57;100205.47;4897740;29;20230;-71
2023/01/10 00:17:49;;;;;;;4.25;3.22;;;;;;;7.34;86.28;100214.97;4899393;29;20206;-70
2023/01/10 00:20:18;;;;;;;5.78;2.50;;;;;;;7.30;86.51;100210.19;4901874;29;20213;-70
2023/01/10 00:22:49;;;;;;;5.70;3.25;;;;;;;7.24;86.55;100213.66;4895126;29;20205;-72
2023/01/10 00:25:20;;;;;;;4.97;4.00;;;;;;;7.26;87.08;100223.19;4880733;29;20225;-71
2023/01/10 00:27:54;;;;;;;7.65;2.97;;;;;;;7.27;87.25;100224.84;4896792;29;20198;-70
2023/01/10 00:30:23;;;;;;;4.78;3.25;;;;;;;7.27;87.13;100224.84;4896606;29;20198;-70
2023/01/10 00:32:55;;;;;;;6.05;2.55;;;;;;;7.23;86.93;100228.13;4888811;29;20214;-70
2023/01/10 00:35:25;;;;;;;3.53;3.22;;;;;;;7.28;87.39;100233.75;4881667;29;20231;-69
2023/01/10 00:38:00;;;;;;;4.00;2.70;;;;;;;7.25;87.44;100234.16;4889946;29;20205;-72
2023/01/10 00:40:29;;;;;;;6.15;3.13;;;;;;;7.28;87.47;100241.84;4885311;29;20613;-71
2023/01/10 00:45:46;;;;;;;6.25;3.35;;;;;;;7.29;87.53;100238.13;4881207;29;20233;-71
2023/01/10 00:48:17;;;;;;;5.22;3.25;;;;;;;7.24;88.04;100245.97;4883035;29;20293;-71
2023/01/10 00:50:46;;;;;;;4.57;3.45;;;;;;;7.17;87.94;100245.91;4899920;29;20677;-69
2023/01/10 00:53:16;;;;;;;4.40;2.95;;;;;;;7.16;87.68;100251.50;4884784;29;20209;-69
2023/01/10 00:55:46;;;;;;;5.05;3.80;;;;;;;7.07;88.12;100253.47;4884560;29;20226;-71
2023/01/10 00:58:16;;;;;;;4.05;2.80;;;;;;;7.11;88.45;100246.69;4881327;29;20211;-69
2023/01/10 01:00:48;;;;;;;4.45;2.67;;;;;;;7.17;88.25;100259.34;4901406;29;20289;-70
2023/01/10 01:03:20;;;;;;;4.15;3.40;;;;;;;7.10;88.19;100254.97;4886528;29;20203;-70
2023/01/10 01:05:49;;;;;;;6.03;3.70;;;;;;;7.13;88.51;100266.16;4905550;29;20217;-71
2023/01/10 01:08:19;;;;;;;5.72;2.85;;;;;;;7.06;88.90;100265.28;4898228;29;20201;-70
2023/01/10 01:10:50;;;;;;;6.57;3.53;;;;;;;7.08;89.07;100265.91;4910575;29;20205;-70
2023/01/10 01:13:21;;;;;;;5.70;2.72;;;;;;;7.15;89.29;100265.97;4906348;29;20198;-70
2023/01/10 01:15:51;;;;;;;4.68;3.22;;;;;;;7.09;89.33;100275.66;4904629;29;20231;-71
2023/01/10 01:18:22;;;;;;;4.60;3.33;;;;;;;7.11;89.19;100279.00;4905222;29;20673;-70
2023/01/10 01:20:56;;;;;;;4.70;3.38;;;;;;;6.99;89.17;100289.44;4903837;29;20206;-70
2023/01/10 01:23:25;;;;;;;2.95;2.42;;;;;;;6.93;89.79;100294.75;4910139;29;20325;-70
2023/01/10 01:25:56;;;;;;;5.22;3.92;;;;;;;6.85;89.94;100293.03;4913056;29;20747;-69
2023/01/10 01:28:26;;;;;;;3.40;2.70;;;;;;;6.82;90.71;100301.50;4913811;29;20206;-70
2023/01/10 01:31:25;;;;;;;3.70;2.97;;;;;;;6.80;90.76;100298.16;4905702;29;20209;-70
2023/01/10 01:33:56;;;;;;;5.40;3.25;;;;;;;6.63;91.51;100309.34;4901344;29;20201;-70
2023/01/10 01:36:26;;;;;;;5.95;3.00;;;;;;;6.58;91.79;100319.84;4891382;29;20224;-70
2023/01/10 01:38:55;;;;;;;4.82;3.35;;;;;;;6.46;92.47;100332.94;4888021;29;20210;-70
2023/01/10 01:44:16;;;;;;;4.95;2.97;;;;;;;6.31;93.70;100346.41;4892229;29;20202;-71
2023/01/10 01:46:49;;;;;;;3.75;3.13;;;;;;;6.21;94.50;100359.28;4883330;29;20579;-70
2023/01/10 01:49:23;;;;;;;5.00;3.20;;;;;;;6.38;93.89;100352.72;4882945;29;20198;-69
2023/01/10 01:52:02;;;;;;;5.15;3.67;;;;;;;6.40;93.88;100352.50;4882994;29;20198;-70
2023/01/10 01:54:32;;;;;;;5.47;3.03;;;;;;;6.48;93.21;100355.94;4883554;29;20593;-70
2023/01/10 01:57:05;;;;;;;5.20;3.63;;;;;;;6.54;93.08;100363.22;4891769;29;20241;-72
2023/01/10 01:59:41;;;;;;;3.85;2.97;;;;;;;6.52;93.07;100353.69;4918818;29;20214;-71
2023/01/10 02:02:17;;;;;;;4.10;3.33;;;;;;;6.47;92.93;100356.94;4894066;29;20634;-72
2023/01/10 02:04:53;;;;;;;4.65;3.20;;;;;;;6.41;93.42;100356.84;4893691;29;20225;-70
2023/01/10 02:07:24;;;;;;;5.93;3.10;;;;;;;6.38;93.51;100363.47;4907954;29;20197;-71
2023/01/10 02:09:58;;;;;;;4.55;3.25;;;;;;;6.28;93.83;100368.28;4897499;29;20344;-71
2023/01/10 02:12:30;;;;;;;10.70;3.47;;;;;;;6.21;94.06;100372.72;4899373;29;20200;-71
2023/01/10 02:15:00;;;;;;;4.40;3.35;;;;;;;6.11;95.00;100377.53;4890505;29;20296;-72
2023/01/10 02:17:29;;;;;;;4.03;3.35;;;;;;;5.99;95.44;100369.13;4907459;29;20216;-70
2023/01/10 02:20:03;;;;;;;7.35;4.07;;;;;;;5.89;96.20;100383.84;4883821;29;20210;-71
2023/01/10 02:23:01;;;;;;;7.32;4.35;;;;;;;5.85;96.68;100387.91;4884014;29;20225;-71
2023/01/10 02:26:10;;;;;;;4.82;3.97;;;;;;;5.72;97.32;100387.66;4897570;29;20238;-71
2023/01/10 02:29:09;;;;;;;8.05;4.53;;;;;;;5.71;98.00;100391.41;4887383;29;20274;-71
2023/01/10 02:32:05;;;;;;;4.90;3.15;;;;;;;5.49;98.76;100393.09;4894775;29;20202;-72
2023/01/10 02:34:45;;;;;;;5.50;3.85;;;;;;;5.52;99.37;100398.09;4894213;29;20217;-71
2023/01/10 02:37:20;;;;;;;4.57;3.65;;;;;;;5.58;99.35;100406.25;4883766;29;20213;-71
2023/01/10 02:39:58;;;;;;;7.78;4.55;;;;;;;5.53;99.66;100405.97;4898657;29;20198;-70
2023/01/10 02:42:36;;;;;;;6.43;4.00;;;;;;;5.57;99.56;100409.13;4883158;29;20209;-71
2023/01/10 02:45:12;;;;;;;5.43;4.10;;;;;;;5.52;100.00;100414.19;4898823;29;20230;-71
2023/01/10 02:47:43;;;;;;;6.97;3.75;;;;;;;5.53;100.00;100424.75;4882974;29;20191;-71
2023/01/10 02:50:30;;;;;;;6.68;4.35;;;;;;;5.53;100.00;100418.56;4882864;29;20285;-71
2023/01/10 02:53:04;;;;;;;7.43;4.60;;;;;;;5.61;100.00;100424.72;4899371;29;20284;-70
2023/01/10 02:56:05;;;;;;;8.18;3.83;;;;;;;5.67;100.00;100423.13;4909977;29;20221;-71
2023/01/10 02:58:47;;;;;;;6.90;4.72;;;;;;;5.73;100.00;100426.94;4894808;29;20266;-71
2023/01/10 03:01:26;;;;;;;5.22;4.43;;;;;;;5.81;99.27;100432.25;4883642;29;20205;-70
2023/01/10 03:04:04;;;;;;;14.35;4.30;;;;;;;5.90;99.15;100434.69;4900303;29;20231;-70
2023/01/10 03:06:43;;;;;;;4.55;3.33;;;;;;;5.84;98.91;100435.38;4904090;29;20241;-70
2023/01/10 03:09:21;;;;;;;13.52;4.80;;;;;;;5.86;99.05;100448.63;4901368;29;20264;-70
2023/01/10 03:11:55;;;;;;;7.40;4.57;;;;;;;5.87;99.16;100463.75;4900507;29;20740;-69
2023/01/10 03:14:28;;;;;;;8.82;3.92;;;;;;;5.89;99.82;100457.19;4898691;29;20273;-68
2023/01/10 03:17:01;;;;;;;4.00;3.60;;;;;;;6.01;99.59;100462.94;4884492;29;20215;-70
2023/01/10 03:19:41;;;;;;;8.75;4.55;;;;;;;6.06;99.61;100465.91;4896151;29;20214;-72
2023/01/10 03:22:11;;;;;;;6.72;3.75;;;;;;;6.08;99.55;100477.31;4888772;29;20214;-71
2023/01/10 03:24:43;;;;;;;9.52;5.13;;;;;;;6.10;99.44;100473.41;4898307;29;20314;-72
2023/01/10 03:27:19;;;;;;;5.95;4.15;;;;;;;6.08;99.57;100474.63;4891583;29;20229;-72
2023/01/10 03:29:56;;;;;;;9.10;4.38;;;;;;;6.18;100.00;100491.31;4883876;29;20233;-72
2023/01/10 03:32:30;;;;;;;8.05;4.43;;;;;;;6.23;99.29;100494.28;4898750;29;20291;-71
2023/01/10 03:35:03;;;;;;;7.22;4.60;;;;;;;6.28;98.79;100513.38;4904157;29;20269;-72
2023/01/10 03:37:38;;;;;;;7.80;3.97;;;;;;;6.35;98.49;100508.09;4876485;29;20210;-71
2023/01/10 03:40:15;;;;;;;11.82;4.15;;;;;;;6.37;98.51;100512.28;4898615;29;20205;-71
2023/01/10 03:45:45;;;;;;;6.03;3.85;;;;;;;6.46;97.70;100532.69;4881264;29;20719;-72
2023/01/10 03:48:17;;;;;;;6.43;3.33;;;;;;;6.55;97.34;100542.31;4905118;29;20198;-70
2023/01/10 03:50:49;;;;;;;5.97;3.53;;;;;;;6.52;97.19;100536.47;4884902;29;20561;-70
2023/01/10 03:53:19;;;;;;;12.77;4.82;;;;;;;6.53;96.82;100541.66;4896631;29;20214;-70
2023/01/10 03:55:49;;;;;;;6.75;4.07;;;;;;;6.60;96.60;100549.00;4898193;29;20214;-71
2023/01/10 03:58:20;;;;;;;4.88;3.90;;;;;;;6.58;96.71;100551.88;4897614;29;20234;-71
2023/01/10 04:00:49;;;;;;;5.85;3.72;;;;;;;6.66;97.10;100556.31;4886297;29;20206;-70
2023/01/10 04:03:19;;;;;;;7.18;4.45;;;;;;;6.69;96.00;100564.00;4880745;29;20632;-70
2023/01/10 04:05:50;;;;;;;8.23;4.07;;;;;;;6.61;96.59;100569.50;4896558;29;20226;-70
2023/01/10 04:08:19;;;;;;;5.80;3.95;;;;;;;6.51;97.07;100570.59;4883610;29;20214;-70
2023/01/10 04:10:49;;;;;;;10.23;3.85;;;;;;;6.60;97.17;100581.25;4882418;29;20205;-71
2023/01/10 04:13:19;;;;;;;7.13;3.85;;;;;;;6.60;97.10;100592.00;4896315;29;20205;-71
2023/01/10 04:15:49;;;;;;;6.70;4.50;;;;;;;6.61;96.75;100599.06;4885771;29;20313;-70
2023/01/10 04:18:19;;;;;;;10.23;4.30;;;;;;;6.61;96.65;100596.38;4887529;29;20234;-71
2023/01/10 04:20:49;;;;;;;10.82;5.43;;;;;;;6.58;96.77;100597.59;4886419;29;20250;-71
2023/01/10 04:23:20;;;;;;;7.28;4.28;;;;;;;6.55;97.05;100604.16;4898549;29;20194;-70
2023/01/10 04:25:49;;;;;;;8.93;4.60;;;;;;;6.58;97.38;100610.19;4884528;29;20225;-70
2023/01/10 04:28:18;;;;;;;7.15;4.45;;;;;;;6.69;96.85;100634.75;4875000;29;20623;-71
2023/01/10 04:30:48;;;;;;;10.02;5.75;;;;;;;6.78;96.33;100635.50;4900422;29;20241;-73
2023/01/10 04:33:17;;;;;;;6.95;4.75;;;;;;;6.76;96.75;100634.88;4899916;29;20573;-70
2023/01/10 04:35:50;;;;;;;8.68;4.53;;;;;;;6.88;95.74;100644.97;4903844;29;20218;-70
2023/01/10 04:38:19;;;;;;;5.72;4.60;;;;;;;6.85;95.60;100644.53;4897382;29;20218;-71
2023/01/10 04:40:54;;;;;;;5.82;4.93;;;;;;;6.75;95.80;100644.78;4901272;29;20209;-72
2023/01/10 04:43:24;;;;;;;6.95;4.68;;;;;;;6.59;96.66;100644.09;4901024;29;20208;-71
2023/01/10 04:45:54;;;;;;;9.65;5.22;;;;;;;6.59;97.16;100657.53;4900207;29;20248;-73
2023/01/10 04:48:23;;;;;;;9.23;5.80;;;;;;;6.58;97.24;100655.91;4899707;29;20194;-72
2023/01/10 04:50:54;;;;;;;7.50;4.72;;;;;;;6.56;97.32;100664.13;4884530;29;20706;-71
2023/01/10 04:53:23;;;;;;;8.00;5.18;;;;;;;6.53;97.58;100668.00;4890279;29;20227;-70
2023/01/10 04:55:53;;;;;;;8.43;6.30;;;;;;;6.53;98.03;100675.25;4894328;29;20652;-72
2023/01/10 04:58:22;;;;;;;12.40;5.70;;;;;;;6.55;98.42;100682.13;4902938;29;20627;-71
2023/01/10 05:00:59;;;;;;;14.15;5.35;;;;;;;6.61;98.29;100687.78;4884849;29;20194;-72
2023/01/10 05:03:28;;;;;;;10.25;5.22;;;;;;;6.65;98.13;100697.16;4900984;29;20192;-71
2023/01/10 05:06:00;;;;;;;11.27;4.63;;;;;;;6.64;98.61;100701.69;4883991;29;20227;-71
2023/01/10 05:08:30;;;;;;;8.80;6.28;;;;;;;6.56;99.07;100709.84;4899646;29;20193;-71
2023/01/10 05:10:59;;;;;;;8.23;5.65;;;;;;;6.54;99.39;100707.31;4899509;29;20202;-71
2023/01/10 05:13:29;;;;;;;11.27;5.82;;;;;;;6.65;99.87;100715.97;4904725;29;20206;-70
2023/01/10 05:15:58;;;;;;;8.68;5.07;;;;;;;6.60;99.72;100715.69;4883800;29;20644;-72
2023/01/10 05:18:29;;;;;;;12.40;5.63;;;;;;;6.57;99.57;100724.13;4902477;29;20704;-72
2023/01/10 05:21:02;;;;;;;8.57;5.70;;;;;;;6.62;99.35;100727.09;4891236;29;20194;-71
2023/01/10 05:23:32;;;;;;;13.80;7.05;;;;;;;6.58;99.19;100733.88;4907677;29;20275;-71
2023/01/10 05:26:07;;;;;;;9.85;5.68;;;;;;;6.58;99.40;100737.41;4884539;29;20305;-70
2023/01/10 05:28:36;;;;;;;19.88;8.23;;;;;;;6.67;98.84;100743.53;4904468;29;20208;-71
2023/01/10 05:31:07;;;;;;;12.73;5.28;;;;;;;6.65;99.06;100745.56;4883831;29;20197;-72
2023/01/10 05:33:36;;;;;;;21.13;7.50;;;;;;;6.67;99.01;100747.06;4888358;29;20399;-70
2023/01/10 05:36:08;;;;;;;13.05;6.55;;;;;;;6.62;98.77;100757.53;4890977;29;20280;-70
2023/01/10 05:38:37;;;;;;;17.38;6.55;;;;;;;6.65;98.43;100753.63;4906691;29;20581;-72
2023/01/10 05:41:07;;;;;;;10.80;5.90;;;;;;;6.63;97.97;100758.38;4891299;29;20232;-70
2023/01/10 05:43:36;;;;;;;14.80;5.95;;;;;;;6.76;97.65;100769.34;4883526;29;20202;-71
2023/01/10 05:46:06;;;;;;;19.40;8.25;;;;;;;6.73;97.94;100780.47;4893888;29;20218;-71
2023/01/10 05:48:35;;;;;;;8.00;6.28;;;;;;;6.76;97.89;100780.94;4891828;29;20736;-71
2023/01/10 05:51:06;;;;;;;16.75;6.80;;;;;;;6.86;97.84;100786.06;4882220;29;20229;-70
2023/01/10 05:53:35;;;;;;;13.13;6.10;;;;;;;6.91;97.18;100791.75;4880060;29;20218;-71
2023/01/10 05:56:06;;;;;;;13.27;6.75;;;;;;;6.93;97.41;100792.38;4896071;29;20278;-71
2023/01/10 05:58:35;;;;;;;10.90;6.20;;;;;;;6.91;96.15;100803.34;4898844;29;20768;-71
2023/01/10 06:01:05;;;;;;;10.15;5.68;;;;;;;6.87;96.49;100799.31;4898397;29;20194;-70
2023/01/10 06:03:34;;;;;;;9.60;5.88;;;;;;;6.94;96.03;100810.22;4899871;29;20206;-71
2023/01/10 06:06:04;;;;;;;27.55;6.38;;;;;;;6.87;96.48;100809.28;4888353;29;20214;-72
2023/01/10 06:08:35;;;;;;;15.57;6.50;;;;;;;6.84;96.68;100809.59;4888170;29;20194;-71
2023/01/10 06:11:05;;;;;;;21.25;7.45;;;;;;;6.83;96.54;100822.22;4896355;29;20273;-71
2023/01/10 06:13:34;;;;;;;13.23;8.13;;;;;;;6.78;96.85;100834.53;4906418;29;20225;-72
2023/01/10 06:16:04;;;;;;;20.23;7.15;;;;;;;6.72;96.88;100837.97;4900360;29;20232;-70
2023/01/10 06:18:33;;;;;;;10.98;6.05;;;;;;;6.70;97.34;100843.50;4901418;29;20217;-71
2023/01/10 06:21:02;;;;;;;10.15;6.88;;;;;;;6.66;97.46;100850.25;4884637;29;20201;-71
2023/01/10 06:23:32;;;;;;;12.85;7.65;;;;;;;6.61;97.22;100846.41;4898261;29;20202;-71
2023/01/10 06:26:02;;;;;;;8.85;6.80;;;;;;;6.55;97.68;100854.19;4898120;29;20275;-69
2023/01/10 06:28:31;;;;;;;11.10;6.47;;;;;;;6.50;98.05;100859.25;4912431;29;20201;-70
2023/01/10 06:31:01;;;;;;;17.50;7.00;;;;;;;6.48;98.12;100847.84;4886289;29;20198;-70
2023/01/10 06:33:30;;;;;;;11.50;5.93;;;;;;;6.55;98.45;100861.41;4900106;29;20199;-71
2023/01/10 06:35:59;;;;;;;12.77;5.88;;;;;;;6.57;97.86;100867.47;4888551;29;20225;-71
2023/01/10 06:38:28;;;;;;;11.02;7.70;;;;;;;6.64;97.96;100872.94;4908759;29;20218;-72
2023/01/10 06:40:58;;;;;;;14.10;7.65;;;;;;;6.68;97.10;100879.66;4894678;29;20209;-71
2023/01/10 06:43:28;;;;;;;10.85;8.18;;;;;;;6.68;97.17;100885.03;4891789;29;20326;-72
2023/01/10 06:45:57;;;;;;;18.90;7.47;;;;;;;6.80;97.04;100889.00;4902415;29;20607;-71
2023/01/10 06:48:38;;;;;;;14.85;8.70;;;;;;;6.84;96.13;100885.75;4908402;29;20709;-71
2023/01/10 06:51:08;;;;;;;14.13;7.20;;;;;;;6.87;96.24;100893.47;4900245;29;20680;-71
2023/01/10 06:53:40;;;;;;;14.57;7.25;;;;;;;7.02;95.68;100900.81;4883085;29;20201;-72
2023/01/10 06:56:10;;;;;;;11.57;7.00;;;;;;;6.95;95.73;100912.25;4889094;29;20234;-71
2023/01/10 06:58:40;;;;;;;10.65;5.75;;;;;;;6.84;95.88;100918.03;4888638;29;20624;-71
2023/01/10 07:01:15;;;;;;;14.65;7.45;;;;;;;6.89;95.08;100915.66;4882286;29;20647;-71
2023/01/10 07:03:47;;;;;;;10.15;6.38;;;;;;;6.92;95.32;100920.66;4886093;29;20198;-71
2023/01/10 07:06:22;;;;;;;17.83;7.63;;;;;;;6.92;94.80;100923.38;4899317;29;20235;-71
2023/01/10 07:08:55;;;;;;;13.18;6.45;;;;;;;6.76;95.35;100931.56;4888768;29;20197;-72
2023/01/10 07:11:26;;;;;;;12.27;6.80;;;;;;;6.67;95.59;100932.63;4901015;29;20210;-71
2023/01/10 07:13:59;;;;;;;13.27;7.18;;;;;;;6.80;95.92;100948.16;4882510;29;20217;-72
2023/01/10 07:16:30;;;;;;;13.68;7.30;;;;;;;6.83;95.97;100947.81;4891793;29;20229;-70
2023/01/10 07:19:02;;;;;;;20.55;7.30;;;;;;;6.74;95.58;100952.38;4897416;29;20234;-71
2023/01/10 07:21:33;;;;;;;17.83;7.70;;;;;;;6.80;95.52;100950.84;4899301;29;20198;-72
2023/01/10 07:24:03;;;;;;;11.77;6.43;;;;;;;6.77;95.19;100953.91;4897906;29;20250;-72
2023/01/10 07:26:34;;;;;;;10.15;7.68;;;;;;;6.84;95.25;100960.25;4897142;29;20191;-71
2023/01/10 07:29:15;;;;;;;16.73;7.03;;;;;;;6.86;94.64;100966.28;4895793;29;20202;-71
2023/01/10 07:31:45;;;;;;;13.52;8.85;;;;;;;6.71;94.96;100973.44;4887411;29;20579;-71
2023/01/10 07:34:16;;;;;;;7.97;6.82;;;;;;;6.60;95.62;100976.50;4884489;29;20213;-71
2023/01/10 07:36:46;;;;;;;13.88;8.27;;;;;;;6.63;95.59;100981.53;4897451;29;20193;-71
2023/01/10 07:39:19;;;;;;;12.70;6.88;;;;;;;6.70;95.63;100991.41;4882612;29;20704;-71
2023/01/10 07:41:51;;;;;;;21.33;7.18;;;;;;;6.64;95.89;100999.31;4894946;29;20220;-70
2023/01/10 07:44:24;;;;;;;18.30;7.88;;;;;;;6.57;95.78;101011.81;4879844;29;20197;-71
2023/01/10 07:46:54;;;;;;;9.35;6.63;;;;;;;6.66;95.94;101006.22;4879374;29;20238;-70
2023/01/10 07:49:28;;;;;;;11.15;7.60;;;;;;;6.71;95.81;101003.00;4882378;29;20288;-71
2023/01/10 07:52:07;;;;;;;12.43;7.13;;;;;;;6.73;95.96;101011.75;4884298;29;20210;-71
2023/01/10 07:55:09;;;;;;;15.95;8.80;;;;;;;6.72;95.05;101021.66;4887871;29;20261;-71
2023/01/10 07:57:40;;;;;;;17.67;7.18;;;;;;;6.71;95.03;101035.28;4889245;29;20202;-71
2023/01/10 08:00:13;;;;;;;9.60;8.10;;;;;;;6.67;95.16;101033.97;4905059;29;20201;-73
2023/01/10 08:02:56;;;;;;;20.08;7.63;;;;;;;6.70;95.50;101033.59;4881229;29;20260;-71
2023/01/10 08:05:27;;;;;;;11.77;7.32;;;;;;;6.71;95.64;101038.81;4881476;29;20264;-71
2023/01/10 08:07:59;;;;;;;14.85;9.07;;;;;;;6.88;95.15;101042.25;4907769;29;20213;-71
2023/01/10 08:10:31;;;;;;;24.33;8.80;;;;;;;6.84;95.37;101041.78;4878323;29;20202;-71
2023/01/10 08:13:02;;;;;;;19.30;9.20;;;;;;;7.02;94.56;101054.97;4895341;29;20554;-71
2023/01/10 08:15:51;;;;;;;13.73;8.50;;;;;;;7.06;93.01;101050.94;4902552;29;20221;-71
2023/01/10 08:18:23;;;;;;;17.80;10.10;;;;;;;7.05;93.01;101054.66;4880801;29;20209;-69
2023/01/10 08:20:56;;;;;;;25.80;12.73;;;;;;;7.15;92.76;101066.03;4897859;29;20296;-71
2023/01/10 08:23:29;;;;;;;19.70;11.52;;;;;;;7.16;92.66;101073.09;4880804;29;20227;-70
2023/01/10 08:26:01;;;;;;;18.40;10.80;;;;;;;7.28;92.36;101077.06;4881771;29;20229;-71
2023/01/10 08:28:36;;;;;;;11.27;7.57;;;;;;;7.30;91.49;101075.03;4878901;29;20217;-72
2023/01/10 08:31:10;;;;;;;14.65;8.75;;;;;;;7.25;91.63;101081.97;4878397;29;20302;-72
2023/01/10 08:33:43;;;;;;;12.77;7.97;;;;;;;7.15;91.33;101082.19;4895229;29;20608;-70
2023/01/10 08:36:21;;;;;;;14.55;7.57;;;;;;;7.09;92.14;101085.56;4888160;29;20634;-71
2023/01/10 08:38:56;;;;;;;18.30;8.40;;;;;;;7.10;92.29;101089.94;4878925;29;20277;-72
2023/01/10 08:41:26;;;;;;;15.38;8.15;;;;;;;7.09;92.43;101082.88;4879973;29;20197;-70
2023/01/10 08:43:57;;;;;;;15.27;7.72;;;;;;;7.08;92.77;101086.56;4895426;29;20202;-70
2023/01/10 08:46:34;;;;;;;11.48;7.85;;;;;;;7.21;91.93;101096.81;4879429;29;20222;-69
2023/01/10 08:49:06;;;;;;;17.02;7.93;;;;;;;7.30;91.69;101098.44;4879911;29;20198;-72
2023/01/10 08:51:38;;;;;;;17.55;7.18;;;;;;;7.35;91.63;101099.59;4896274;29;20194;-70
2023/01/10 08:54:09;;;;;;;19.40;10.25;;;;;;;7.56;90.51;101106.19;4894655;29;20566;-70
2023/01/10 08:56:41;;;;;;;12.85;7.95;;;;;;;7.55;90.01;101109.91;4894002;29;20210;-70
2023/01/10 08:59:20;;;;;;;14.23;8.35;;;;;;;7.66;89.83;101112.19;4894617;29;20198;-70
2023/01/10 09:02:03;;;;;;;17.92;8.75;;;;;;;7.64;89.77;101122.31;4879806;29;20234;-70
2023/01/10 09:04:33;;;;;;;16.80;9.05;;;;;;;7.74;89.43;101125.63;4884222;29;20575;-70
2023/01/10 09:07:04;;;;;;;14.55;8.05;;;;;;;7.54;89.78;101132.47;4902635;29;20198;-70
2023/01/10 09:09:37;;;;;;;12.95;7.97;;;;;;;7.45;90.18;101126.28;4887444;29;20250;-70
2023/01/10 09:12:53;;;;;;;13.02;8.20;;;;;;;7.36;90.44;101127.31;4887015;29;20281;-69
2023/01/10 09:14:58;;;;;;;13.07;8.00;;;;;;;7.35;90.92;101131.91;4908141;29;20218;-72
2023/01/10 09:17:30;;;;;;;14.52;7.75;;;;;;;7.59;90.89;101146.25;4899568;29;20209;-70
2023/01/10 09:20:04;;;;;;;15.27;6.95;;;;;;;7.51;90.03;101157.03;4884969;29;20318;-71
2023/01/10 09:22:35;;;;;;;15.02;7.25;;;;;;;7.60;90.40;101156.00;4884877;29;20306;-72
2023/01/10 09:25:08;;;;;;;15.20;7.43;;;;;;;7.64;88.96;101151.94;4899231;29;20222;-71
2023/01/10 09:27:46;;;;;;;10.35;7.43;;;;;;;7.59;89.66;101151.63;4886479;29;20202;-71
2023/01/10 09:30:17;;;;;;;15.90;8.10;;;;;;;7.76;89.00;101156.75;4887682;29;20223;-68
2023/01/10 09:32:54;;;;;;;13.68;7.72;;;;;;;7.89;88.75;101166.13;4898415;29;20297;-71
2023/01/10 09:35:25;;;;;;;12.13;7.35;;;;;;;7.65;90.05;101157.13;4888413;29;20213;-71
2023/01/10 09:37:56;;;;;;;15.80;7.15;;;;;;;7.64;90.52;101158.16;4899973;29;20205;-71
2023/01/10 09:40:38;;;;;;;16.77;6.70;;;;;;;7.62;90.37;101153.97;4884106;29;20224;-70
2023/01/10 09:43:17;;;;;;;15.90;6.93;;;;;;;7.75;90.02;101162.28;4883753;29;20210;-71
2023/01/10 09:45:56;;;;;;;10.88;7.40;;;;;;;7.85;90.13;101171.00;4899393;29;20249;-70
2023/01/10 09:48:38;;;;;;;11.52;5.68;;;;;;;7.88;89.56;101167.97;4883908;29;20209;-70
2023/01/10 09:51:30;;;;;;;11.45;8.15;;;;;;;7.91;89.58;101180.22;4884258;29;20217;-70
2023/01/10 09:54:11;;;;;;;9.40;7.65;;;;;;;8.02;89.49;101180.66;4904037;29;20415;-71
2023/01/10 09:56:42;;;;;;;14.57;7.20;;;;;;;8.07;88.27;101175.59;4898520;29;20201;-71
2023/01/10 09:59:17;;;;;;;11.30;6.22;;;;;;;7.89;89.05;101182.28;4901631;29;20203;-72
2023/01/10 10:01:58;;;;;;;8.80;6.35;;;;;;;8.02;89.33;101186.06;4894585;29;20217;-69
2023/01/10 10:04:35;;;;;;;10.43;6.03;;;;;;;8.10;89.73;101182.47;4879694;29;20227;-70
2023/01/10 10:07:13;;;;;;;13.02;6.72;;;;;;;8.17;89.52;101183.44;4890726;29;20209;-70
2023/01/10 10:09:44;;;;;;;10.25;7.35;;;;;;;8.07;90.25;101189.06;4899129;29;20203;-69
2023/01/10 10:12:29;;;;;;;12.15;6.93;;;;;;;7.93;89.66;101184.44;4889160;29;20206;-72
2023/01/10 10:15:14;;;;;;;13.60;7.20;;;;;;;8.04;90.64;101175.06;4898243;29;20730;-72
2023/01/10 10:17:52;;;;;;;20.20;6.35;;;;;;;8.00;89.67;101177.31;4893490;29;20205;-72
2023/01/10 10:20:40;;;;;;;10.63;7.03;;;;;;;8.08;90.31;101182.66;4882877;29;20261;-71
2023/01/10 10:23:47;;;;;;;13.35;8.88;;;;;;;8.10;89.41;101190.53;4885721;29;20206;-69
2023/01/10 10:26:33;;;;;;;10.13;6.97;;;;;;;8.23;89.46;101188.94;4894387;29;20274;-72
2023/01/10 10:29:51;;;;;;;16.52;6.53;;;;;;;8.16;88.81;101185.28;4904243;29;20202;-70
2023/01/10 10:32:41;;;;;;;11.88;6.95;;;;;;;8.08;87.93;101177.28;4882301;29;20266;-70
2023/01/10 10:35:15;;;;;;;14.82;6.60;;;;;;;7.97;88.10;101185.75;4895508;29;20218;-71
2023/01/10 10:37:52;;;;;;;12.80;7.18;;;;;;;8.14;88.02;101198.09;4893747;29;20198;-71
2023/01/10 10:40:29;;;;;;;15.20;6.55;;;;;;;8.25;87.67;101197.69;4883644;29;20214;-70
2023/01/10 10:43:20;;;;;;;22.27;6.95;;;;;;;8.28;86.14;101202.72;4898994;29;20201;-69
2023/01/10 10:45:56;;;;;;;11.32;5.93;;;;;;;8.53;84.70;101205.25;4882483;29;20226;-71
2023/01/10 10:48:30;;;;;;;13.73;6.72;;;;;;;8.55;85.10;101208.63;4896539;29;20200;-71
2023/01/10 10:51:07;;;;;;;13.85;6.50;;;;;;;8.55;84.08;101205.91;4882308;29;20280;-72
2023/01/10 10:53:39;;;;;;;12.25;6.40;;;;;;;8.68;83.27;101206.13;4882164;29;20201;-71
2023/01/10 10:56:15;;;;;;;9.57;5.93;;;;;;;8.78;82.80;101217.50;4879573;29;20219;-71
2023/01/10 10:58:48;;;;;;;10.98;5.70;;;;;;;9.00;81.47;101227.44;4898063;29;20208;-72
2023/01/10 11:01:20;;;;;;;8.77;4.90;;;;;;;8.94;80.42;101228.16;4895901;29;20214;-73
2023/01/10 11:03:58;;;;;;;10.25;5.40;;;;;;;8.81;81.01;101232.50;4894480;29;20193;-73
2023/01/10 11:06:30;;;;;;;11.35;5.10;;;;;;;8.96;81.12;101236.91;4884411;29;20229;-72
2023/01/10 11:09:06;;;;;;;11.40;4.95;;;;;;;9.10;80.81;101233.38;4887763;29;20288;-73
2023/01/10 11:11:43;;;;;;;21.02;5.32;;;;;;;9.00;80.21;101238.22;4894712;29;20229;-70
2023/01/10 11:14:15;;;;;;;9.82;5.18;;;;;;;8.88;79.91;101239.69;4898696;29;20190;-70
2023/01/10 11:16:46;;;;;;;13.57;5.70;;;;;;;8.91;79.82;101231.22;4882209;29;20226;-71
2023/01/10 11:19:22;;;;;;;12.80;5.70;;;;;;;9.09;79.61;101220.09;4890604;29;20220;-72
2023/01/10 11:25:47;;;;;;;11.50;5.50;;;;;;;9.88;76.06;101205.75;4908348;29;20222;-70
2023/01/10 11:28:22;;;;;;;9.07;6.18;;;;;;;9.74;76.20;101209.34;4887089;29;20454;-71
2023/01/10 11:30:52;;;;;;;11.50;4.72;;;;;;;9.49;77.01;101224.19;4870985;29;20194;-71
2023/01/10 11:33:27;;;;;;;9.38;4.93;;;;;;;9.05;76.30;101234.97;4898930;29;20202;-72
2023/01/10 11:36:02;;;;;;;9.77;3.35;;;;;;;9.07;76.65;101228.38;4900379;29;20227;-72
2023/01/10 11:38:33;;;;;;;7.78;4.10;;;;;;;8.78;76.91;101222.91;4886319;29;20198;-69
2023/01/10 11:41:07;;;;;;;8.80;4.60;;;;;;;8.87;77.50;101221.81;4892608;29;20221;-70
2023/01/10 11:43:41;;;;;;;7.05;6.22;;;;;;;8.80;78.08;101234.38;4884359;29;20212;-72
2023/01/10 11:46:19;;;;;;;9.93;3.70;;;;;;;8.99;77.19;101236.56;4892077;29;20217;-71
2023/01/10 11:48:53;;;;;;;14.15;5.55;;;;;;;8.96;78.08;101244.16;4886466;29;20226;-71
2023/01/10 11:51:37;;;;;;;10.93;4.70;;;;;;;8.99;77.43;101244.66;4899338;29;20220;-71
2023/01/10 11:54:12;;;;;;;9.98;4.50;;;;;;;9.10;77.57;101244.19;4884729;29;20959;-70
2023/01/10 11:56:56;;;;;;;6.88;5.20;;;;;;;9.10;77.01;101244.19;4884335;29;20226;-72
2023/01/10 11:59:28;;;;;;;6.20;3.65;;;;;;;9.19;76.35;101244.13;4896246;29;20195;-73
2023/01/10 12:02:04;;;;;;;10.52;6.22;;;;;;;8.89;76.95;101252.16;4899842;29;20309;-70
2023/01/10 12:04:43;;;;;;;8.27;4.90;;;;;;;8.66;78.77;101246.81;4884778;29;20322;-71
2023/01/10 12:07:14;;;;;;;13.13;4.57;;;;;;;8.70;79.42;101244.56;4901050;29;20629;-72
2023/01/10 12:09:46;;;;;;;8.18;5.53;;;;;;;8.69;78.59;101240.19;4900616;29;20205;-72
2023/01/10 12:12:24;;;;;;;11.18;5.15;;;;;;;8.86;78.47;101241.72;4896875;29;20201;-70
2023/01/10 12:14:57;;;;;;;10.40;5.70;;;;;;;8.91;77.82;101244.72;4897590;29;20317;-71